createdAt,value
2019-04-16T00:03:37.312Z,67.07
2019-04-16T00:06:08.310Z,67.05
2019-04-16T00:08:48.352Z,67.08
2019-04-16T00:11:25.205Z,67.41
2019-04-16T00:14:03.028Z,67.74
2019-04-16T00:16:30.017Z,67.56
2019-04-16T00:19:04.415Z,67.31
2019-04-16T00:21:38.474Z,67.74
2019-04-16T00:24:10.596Z,67.58
2019-04-16T00:26:40.051Z,67.51
2019-04-16T00:29:09.411Z,67.52
2019-04-16T00:31:39.340Z,67.59
2019-04-16T00:34:13.399Z,68.07
2019-04-16T00:36:39.821Z,68.22
2019-04-16T00:39:09.195Z,67.75
2019-04-16T00:41:38.562Z,68.08
2019-04-16T00:44:07.989Z,68.31
2019-04-16T00:46:37.443Z,68.14
2019-04-16T00:49:06.809Z,68.12
2019-04-16T00:51:36.168Z,68.80
2019-04-16T00:54:09.911Z,68.68
2019-04-16T00:56:36.611Z,68.35
2019-04-16T00:59:05.992Z,68.71
2019-04-16T01:01:35.431Z,68.76
2019-04-16T01:04:05.532Z,69.13
2019-04-16T01:06:34.505Z,68.41
2019-04-16T01:09:05.856Z,68.42
2019-04-16T01:11:35.331Z,68.50
2019-04-16T01:14:04.983Z,68.25
2019-04-16T01:16:34.346Z,67.89
2019-04-16T01:19:03.714Z,68.04
2019-04-16T01:21:33.159Z,68.34
2019-04-16T01:24:02.541Z,67.96
2019-04-16T01:26:32.582Z,67.61
2019-04-16T01:31:42.767Z,67.87
2019-04-16T01:34:30.175Z,68.77
2019-04-16T01:37:01.174Z,68.39
2019-04-16T01:39:32.194Z,68.22
2019-04-16T01:42:01.570Z,67.86
2019-04-16T01:44:30.938Z,67.83
2019-04-16T01:47:03.471Z,67.72
2019-04-16T01:49:31.447Z,67.80
2019-04-16T01:52:00.792Z,67.63
2019-04-16T01:54:30.223Z,67.96
2019-04-16T01:57:00.707Z,67.44
2019-04-16T01:59:30.236Z,68.00
2019-04-16T02:01:59.831Z,67.96
2019-04-16T02:04:29.305Z,68.85
2019-04-16T02:06:58.662Z,67.68
2019-04-16T02:09:28.049Z,68.38
2019-04-16T02:11:57.401Z,68.26
2019-04-16T02:14:26.758Z,68.49
2019-04-16T02:16:56.719Z,68.45
2019-04-16T02:19:26.235Z,68.81
2019-04-16T02:21:55.600Z,69.65
2019-04-16T02:24:25.033Z,68.97
2019-04-16T02:26:55.030Z,68.06
2019-04-16T02:29:29.412Z,68.77
2019-04-16T02:31:56.254Z,66.66
2019-04-16T02:34:25.626Z,66.87
2019-04-16T02:37:00.917Z,66.91
2019-04-16T02:39:46.549Z,66.53
2019-04-16T02:41:58.590Z,66.84
2019-04-16T02:44:28.157Z,67.28
2019-04-16T02:46:57.516Z,68.00
2019-04-16T02:49:26.957Z,68.51
2019-04-16T02:52:03.786Z,68.13
2019-04-16T03:00:08.467Z,70.34
2019-04-16T03:02:42.429Z,70.79
2019-04-16T03:05:13.532Z,71.06
2019-04-16T03:07:42.962Z,70.67
2019-04-16T03:10:13.903Z,71.52
2019-04-16T03:12:43.530Z,71.57
2019-04-16T03:15:14.711Z,72.00
2019-04-16T03:17:45.379Z,71.98
2019-04-16T03:20:20.868Z,72.44
2019-04-16T03:22:50.332Z,72.17
2019-04-16T03:25:19.773Z,72.52
2019-04-16T03:27:51.484Z,73.07
2019-04-16T03:30:20.229Z,73.37
2019-04-16T03:32:50.548Z,73.54
2019-04-16T03:35:25.543Z,73.94
2019-04-16T03:37:51.062Z,72.54
2019-04-16T03:40:24.730Z,72.21
2019-04-16T03:42:51.600Z,72.31
2019-04-16T03:45:20.961Z,72.67
2019-04-16T03:47:51.422Z,72.57
2019-04-16T03:50:21.451Z,71.71
2019-04-16T03:52:50.882Z,72.02
2019-04-16T03:55:25.034Z,71.36
2019-04-16T03:57:51.339Z,72.29
2019-04-16T04:00:20.792Z,72.08
2019-04-16T04:02:53.904Z,71.07
2019-04-16T04:05:21.395Z,71.57
2019-04-16T04:07:50.753Z,70.41
2019-04-16T04:10:30.582Z,69.69
2019-04-16T04:12:51.337Z,69.49
2019-04-16T04:15:26.022Z,68.98
2019-04-16T04:17:51.943Z,69.14
2019-04-16T04:20:21.367Z,69.65
2019-04-16T04:22:50.837Z,69.78
2019-04-16T04:25:20.269Z,69.97
2019-04-16T04:27:49.692Z,69.81
2019-04-16T04:30:20.676Z,69.87
2019-04-16T04:32:50.029Z,69.65
2019-04-16T04:35:22.035Z,69.12
2019-04-16T04:37:50.451Z,68.51
2019-04-16T04:40:20.136Z,69.61
2019-04-16T04:42:49.583Z,69.29
2019-04-16T04:45:19.038Z,69.30
2019-04-16T04:47:51.522Z,69.48
2019-04-16T04:50:19.470Z,69.37
2019-04-16T04:52:48.885Z,68.58
2019-04-16T04:55:18.507Z,68.00
2019-04-16T04:57:47.874Z,67.51
2019-04-16T05:00:17.209Z,67.07
2019-04-16T05:02:46.561Z,65.54
2019-04-16T05:05:25.697Z,65.09
2019-04-16T05:07:54.544Z,65.44
2019-04-16T05:10:23.933Z,62.42
2019-04-16T05:12:53.828Z,64.76
2019-04-16T05:15:23.358Z,63.74
2019-04-16T05:17:52.715Z,64.37
2019-04-16T05:20:22.162Z,63.44
2019-04-16T05:22:53.585Z,65.31
2019-04-16T05:25:22.697Z,62.93
2019-04-16T05:27:52.040Z,62.58
2019-04-16T05:30:22.093Z,62.00
2019-04-16T05:32:51.622Z,61.94
2019-04-16T05:35:20.988Z,61.87
2019-04-16T05:37:51.569Z,61.87
2019-04-16T05:40:21.598Z,60.94
2019-04-16T05:42:52.609Z,60.60
2019-04-16T05:45:22.190Z,59.35
2019-04-16T05:47:51.561Z,58.42
2019-04-16T05:50:20.989Z,56.38
2019-04-16T05:52:50.401Z,55.70
2019-04-16T05:58:02.188Z,53.51
2019-04-16T06:00:33.192Z,53.43
2019-04-16T06:03:02.594Z,49.47
2019-04-16T06:05:32.032Z,52.60
2019-04-16T06:08:13.304Z,53.80
2019-04-16T06:10:42.735Z,52.93
2019-04-16T06:13:16.813Z,53.17
2019-04-16T06:15:54.064Z,53.61
2019-04-16T06:18:28.064Z,53.65
2019-04-16T06:21:11.400Z,52.31
2019-04-16T06:23:48.507Z,52.99
2019-04-16T06:26:22.406Z,50.95
2019-04-16T06:28:56.395Z,51.45
2019-04-16T06:31:36.250Z,52.05
2019-04-16T06:34:17.176Z,51.03
2019-04-16T06:36:51.160Z,51.76
2019-04-16T06:39:22.165Z,49.29
2019-04-16T06:42:11.167Z,51.60
2019-04-16T06:44:48.385Z,51.85
2019-04-16T06:47:34.487Z,48.49
2019-04-16T06:50:09.661Z,47.82
2019-04-16T06:52:57.091Z,49.66
2019-04-16T06:55:28.107Z,50.11
2019-04-16T07:00:51.220Z,47.42
2019-04-16T07:01:41.802Z,49.40
2019-04-16T07:03:25.834Z,47.43
2019-04-16T07:05:54.980Z,45.08
2019-04-16T07:08:37.531Z,47.23
2019-04-16T07:11:04.154Z,49.22
2019-04-16T07:13:33.610Z,46.75
2019-04-16T07:16:03.069Z,47.06
2019-04-16T07:18:32.434Z,47.02
2019-04-16T07:21:01.820Z,44.59
2019-04-16T07:23:31.206Z,45.87
2019-04-16T07:26:03.542Z,46.58
2019-04-16T07:28:42.867Z,43.57
2019-04-16T07:34:08.993Z,43.48
2019-04-16T07:36:40.014Z,38.78
2019-04-16T07:39:28.726Z,40.84
2019-04-16T07:41:49.799Z,40.40
2019-04-16T07:44:20.806Z,42.25
2019-04-16T07:46:54.798Z,43.86
2019-04-16T07:49:38.070Z,43.51
2019-04-16T07:52:12.165Z,39.86
2019-04-16T07:54:58.482Z,41.37
2019-04-16T07:57:27.875Z,40.16
2019-04-16T07:59:57.336Z,39.81
2019-04-16T08:02:26.797Z,41.03
2019-04-16T08:04:56.458Z,40.82
2019-04-16T08:07:25.918Z,41.64
2019-04-16T08:09:55.365Z,40.84
2019-04-16T08:12:30.473Z,40.68
2019-04-16T08:15:12.927Z,41.85
2019-04-16T08:17:29.806Z,42.96
2019-04-16T08:19:59.188Z,40.27
2019-04-16T08:22:28.790Z,40.99
2019-04-16T08:25:03.555Z,39.30
2019-04-16T08:27:30.908Z,37.29
2019-04-16T08:30:03.712Z,37.23
2019-04-16T08:32:31.506Z,36.67
2019-04-16T08:35:00.870Z,34.41
2019-04-16T08:37:30.315Z,35.42
2019-04-16T08:39:59.889Z,35.63
2019-04-16T08:42:38.098Z,36.84
2019-04-16T08:45:00.454Z,36.59
2019-04-16T08:47:29.914Z,38.58
2019-04-16T08:49:59.370Z,36.87
2019-04-16T08:52:28.933Z,37.61
2019-04-16T08:54:58.467Z,38.80
2019-04-16T08:57:31.624Z,38.31
2019-04-16T08:59:59.229Z,39.37
2019-04-16T09:02:29.125Z,37.61
2019-04-16T09:04:58.811Z,38.24
2019-04-16T09:10:23.736Z,39.02
2019-04-16T09:13:03.466Z,39.88
2019-04-16T09:15:27.825Z,38.66
2019-04-16T09:18:10.820Z,37.94
2019-04-16T09:20:41.163Z,35.84
2019-04-16T09:23:10.544Z,40.87
2019-04-16T09:25:47.796Z,36.47
2019-04-16T09:28:25.606Z,36.19
2019-04-16T09:31:06.480Z,35.94
2019-04-16T09:33:52.800Z,37.93
2019-04-16T09:36:40.249Z,37.92
2019-04-16T09:39:11.371Z,39.02
2019-04-16T09:41:42.201Z,38.05
2019-04-16T09:44:11.579Z,38.43
2019-04-16T09:46:59.407Z,38.22
2019-04-16T09:49:12.528Z,38.07
2019-04-16T09:51:42.380Z,38.89
2019-04-16T09:54:13.575Z,36.39
2019-04-16T09:56:43.275Z,36.20
2019-04-16T09:59:16.188Z,35.74
2019-04-16T10:01:47.043Z,36.75
2019-04-16T10:04:18.315Z,35.71
2019-04-16T10:06:48.333Z,36.85
2019-04-16T10:09:21.728Z,34.14
2019-04-16T10:11:49.108Z,37.09
2019-04-16T10:14:18.572Z,38.01
2019-04-16T10:16:48.069Z,34.84
2019-04-16T10:19:17.809Z,34.84
2019-04-16T10:21:53.358Z,37.29
2019-04-16T10:24:37.985Z,35.93
2019-04-16T10:27:09.040Z,37.19
2019-04-16T10:29:38.540Z,37.01
2019-04-16T10:32:07.960Z,38.27
2019-04-16T10:34:37.317Z,36.17
2019-04-16T10:37:07.067Z,35.00
2019-04-16T10:39:38.223Z,34.15
2019-04-16T10:42:25.568Z,34.47
2019-04-16T10:47:53.632Z,34.80
2019-04-16T10:50:36.460Z,35.80
2019-04-16T10:53:24.103Z,36.17
2019-04-16T10:56:04.443Z,35.38
2019-04-16T10:58:44.588Z,32.76
2019-04-16T11:01:15.596Z,32.76
2019-04-16T11:03:46.584Z,33.32
2019-04-16T11:06:29.908Z,33.78
2019-04-16T11:08:59.286Z,34.59
2019-04-16T11:11:28.710Z,35.88
2019-04-16T11:14:00.160Z,35.83
2019-04-16T11:16:29.431Z,33.16
2019-04-16T11:18:59.132Z,31.49
2019-04-16T11:21:28.468Z,31.49
2019-04-16T11:23:57.952Z,32.63
2019-04-16T11:26:27.457Z,33.17
2019-04-16T11:31:26.414Z,32.57
2019-04-16T11:33:55.803Z,36.23
2019-04-16T11:36:30.467Z,35.39
2019-04-16T11:38:56.455Z,35.00
2019-04-16T11:41:25.815Z,37.49
2019-04-16T11:43:55.255Z,36.58
2019-04-16T11:46:24.827Z,36.58
2019-04-16T11:48:54.356Z,34.70
2019-04-16T11:51:23.793Z,33.27
2019-04-16T11:53:53.367Z,33.27
2019-04-16T11:56:22.943Z,33.93
2019-04-16T11:58:52.618Z,33.93
2019-04-16T12:01:42.091Z,33.93
2019-04-16T12:04:15.654Z,32.13
2019-04-16T12:06:55.039Z,33.85
2019-04-16T12:09:26.040Z,32.14
2019-04-16T12:12:06.316Z,30.90
2019-04-16T12:17:05.413Z,30.20
2019-04-16T12:19:54.775Z,29.98
2019-04-16T12:22:34.713Z,31.64
2019-04-16T12:25:06.511Z,30.10
2019-04-16T12:27:37.588Z,30.10
2019-04-16T12:30:09.576Z,27.56
2019-04-16T12:32:49.399Z,27.56
2019-04-16T12:35:23.235Z,29.49
2019-04-16T12:38:14.756Z,28.24
2019-04-16T12:40:44.498Z,28.36
2019-04-16T12:43:31.803Z,30.30
2019-04-16T12:46:17.848Z,30.30
2019-04-16T12:48:54.755Z,29.57
2019-04-16T12:51:39.815Z,32.01
2019-04-16T12:54:19.655Z,32.54
2019-04-16T12:56:56.792Z,32.54
2019-04-16T12:59:33.833Z,33.77
2019-04-16T13:02:14.253Z,31.04
2019-04-16T13:04:48.302Z,31.46
2019-04-16T13:07:18.091Z,31.46
2019-04-16T13:10:05.408Z,30.94
2019-04-16T13:12:42.375Z,32.02
2019-04-16T13:15:29.960Z,32.02
2019-04-16T13:18:03.879Z,33.22
2019-04-16T13:20:56.948Z,34.47
2019-04-16T13:23:38.092Z,38.02
2019-04-16T13:26:27.391Z,34.85
2019-04-16T13:28:58.245Z,37.77
2019-04-16T13:31:27.695Z,38.63
2019-04-16T13:33:57.129Z,41.73
2019-04-16T13:36:27.872Z,44.36
2019-04-16T13:39:05.250Z,43.80
2019-04-16T13:41:34.644Z,36.23
2019-04-16T13:44:09.024Z,41.90
2019-04-16T13:46:36.786Z,43.11
2019-04-16T13:49:14.018Z,43.11
2019-04-16T13:51:45.050Z,45.41
2019-04-16T13:54:18.951Z,42.43
2019-04-16T13:56:51.588Z,42.77
2019-04-16T13:59:22.733Z,42.21
2019-04-16T14:01:59.002Z,42.21
2019-04-16T14:04:43.076Z,38.60
2019-04-16T14:07:12.757Z,36.92
2019-04-16T14:09:44.303Z,38.07
2019-04-16T14:12:13.497Z,35.80
2019-04-16T14:14:42.935Z,36.15
2019-04-16T14:17:17.622Z,37.83
2019-04-16T14:19:45.299Z,37.83
2019-04-16T14:22:14.699Z,36.79
2019-04-16T14:24:44.139Z,36.62
2019-04-16T14:27:14.466Z,36.62
2019-04-16T14:29:43.447Z,38.36
2019-04-16T14:32:13.131Z,40.39
2019-04-16T14:34:47.267Z,38.02
2019-04-16T14:37:16.744Z,38.37
2019-04-16T14:40:04.423Z,39.84
2019-04-16T14:42:34.067Z,41.42
2019-04-16T14:45:09.392Z,41.45
2019-04-16T14:47:38.767Z,41.73
2019-04-16T14:50:08.452Z,43.33
2019-04-16T14:52:37.764Z,42.81
2019-04-16T14:55:12.338Z,41.99
2019-04-16T14:57:59.669Z,42.95
2019-04-16T15:00:33.561Z,44.17
2019-04-16T15:03:04.581Z,45.64
2019-04-16T15:05:35.564Z,47.43
2019-04-16T15:08:23.024Z,48.33
2019-04-16T15:10:54.024Z,45.38
2019-04-16T15:13:30.739Z,44.74
2019-04-16T15:16:10.853Z,44.74
2019-04-16T15:18:43.436Z,43.90
2019-04-16T15:21:23.487Z,44.10
2019-04-16T15:24:00.848Z,44.10
2019-04-16T15:26:52.301Z,42.98
2019-04-16T15:29:23.447Z,44.69
2019-04-16T15:31:53.703Z,47.36
2019-04-16T15:34:24.705Z,46.95
2019-04-16T15:39:44.159Z,49.66
2019-04-16T15:42:26.993Z,51.03
2019-04-16T15:45:00.950Z,50.50
2019-04-16T15:47:32.737Z,50.75
2019-04-16T15:50:06.896Z,50.68
2019-04-16T15:52:46.825Z,51.78
2019-04-16T15:55:24.134Z,52.02
2019-04-16T15:57:59.043Z,51.22
2019-04-16T16:00:32.994Z,52.47
2019-04-16T16:03:03.990Z,52.26
2019-04-16T16:05:41.204Z,52.31
2019-04-16T16:13:39.319Z,52.56
2019-04-16T16:16:10.479Z,51.60
2019-04-16T16:18:39.863Z,52.38
2019-04-16T16:21:09.363Z,52.16
2019-04-16T16:23:38.803Z,52.35
2019-04-16T16:26:08.241Z,52.68
2019-04-16T16:28:37.621Z,53.21
2019-04-16T16:31:07.127Z,52.53
2019-04-16T16:33:36.495Z,53.20
2019-04-16T16:36:05.948Z,53.09
2019-04-16T16:38:35.355Z,54.66
2019-04-16T16:41:05.083Z,55.72
2019-04-16T16:43:34.532Z,56.05
2019-04-16T16:46:05.560Z,56.89
2019-04-16T16:48:35.046Z,56.74
2019-04-16T16:51:04.619Z,56.54
2019-04-16T16:53:51.862Z,56.64
2019-04-16T16:56:26.037Z,56.67
2019-04-16T16:58:57.039Z,56.40
2019-04-16T17:01:35.096Z,55.49
2019-04-16T17:04:11.782Z,56.17
2019-04-16T17:06:41.136Z,56.63
2019-04-16T17:09:12.157Z,57.17
2019-04-16T17:11:43.196Z,57.00
2019-04-16T17:14:12.662Z,56.68
2019-04-16T17:16:42.092Z,56.91
2019-04-16T17:19:11.554Z,56.29
2019-04-16T17:21:40.976Z,56.66
2019-04-16T17:24:10.416Z,57.75
2019-04-16T17:26:39.848Z,59.53
2019-04-16T17:29:09.293Z,59.83
2019-04-16T17:31:38.803Z,59.93
2019-04-16T17:34:08.278Z,59.69
2019-04-16T17:36:37.631Z,59.08
2019-04-16T17:39:10.475Z,59.34
2019-04-16T17:44:32.674Z,59.04
2019-04-16T17:47:31.382Z,60.00
2019-04-16T17:49:54.273Z,60.07
2019-04-16T17:52:25.288Z,59.86
2019-04-16T17:55:12.515Z,60.15
2019-04-16T17:57:43.517Z,57.72
2019-04-16T18:00:31.461Z,55.27
2019-04-16T18:03:09.869Z,53.82
2019-04-16T18:05:43.621Z,53.48
2019-04-16T18:08:33.143Z,54.68
2019-04-16T18:11:09.846Z,53.41
2019-04-16T18:13:39.656Z,53.29
2019-04-16T18:16:10.735Z,53.56
2019-04-16T18:18:47.639Z,53.82
2019-04-16T18:21:33.863Z,53.80
2019-04-16T18:24:21.013Z,53.18
2019-04-16T18:26:57.746Z,54.32
2019-04-16T18:29:34.241Z,54.44
2019-04-16T18:32:05.240Z,53.98
2019-04-16T18:34:52.358Z,54.48
2019-04-16T18:37:41.827Z,55.53
2019-04-16T18:40:13.024Z,55.43
2019-04-16T18:45:39.676Z,56.23
2019-04-16T18:48:14.182Z,56.75
2019-04-16T18:50:43.802Z,57.34
2019-04-16T18:53:13.164Z,58.06
2019-04-16T18:55:42.540Z,58.59
2019-04-16T18:58:11.963Z,58.67
2019-04-16T19:00:46.659Z,58.38
2019-04-16T19:03:16.087Z,58.89
2019-04-16T19:05:45.635Z,59.12
2019-04-16T19:08:15.154Z,60.00
2019-04-16T19:10:44.689Z,59.30
2019-04-16T19:13:14.035Z,59.93
2019-04-16T19:15:43.492Z,61.27
2019-04-16T19:18:19.786Z,60.77
2019-04-16T19:20:43.987Z,61.80
2019-04-16T19:23:13.408Z,61.97
2019-04-16T19:25:42.833Z,61.68
2019-04-16T19:28:12.210Z,62.34
2019-04-16T19:30:41.574Z,63.17
2019-04-16T19:33:13.049Z,63.41
2019-04-16T19:35:43.999Z,62.98
2019-04-16T19:38:13.402Z,63.37
2019-04-16T19:40:42.868Z,64.26
2019-04-16T19:43:12.311Z,64.84
2019-04-16T19:45:43.640Z,64.91
2019-04-16T19:48:13.038Z,66.45
2019-04-16T19:50:42.501Z,66.55
2019-04-16T19:53:14.905Z,66.04
2019-04-16T19:55:45.806Z,66.50
2019-04-16T19:58:14.529Z,66.04
2019-04-16T20:00:43.889Z,66.90
2019-04-16T20:03:13.330Z,66.93
2019-04-16T20:05:42.758Z,66.49
2019-04-16T20:08:12.127Z,67.04
2019-04-16T20:10:41.510Z,67.73
2019-04-16T20:13:10.953Z,67.59
2019-04-16T20:15:43.322Z,66.50
2019-04-16T20:18:11.473Z,67.63
2019-04-16T20:20:40.834Z,68.22
2019-04-16T20:23:10.209Z,68.25
2019-04-16T20:25:39.562Z,68.15
2019-04-16T20:28:12.655Z,68.66
2019-04-16T20:30:40.076Z,68.55
2019-04-16T20:33:09.446Z,68.89
2019-04-16T20:35:38.811Z,69.98
2019-04-16T20:38:08.256Z,69.83
2019-04-16T20:40:37.704Z,70.43
2019-04-16T20:43:08.005Z,70.35
2019-04-16T20:45:37.441Z,70.52
2019-04-16T20:48:09.185Z,70.51
2019-04-16T20:50:38.127Z,69.94
2019-04-16T20:53:08.484Z,70.05
2019-04-16T20:55:38.090Z,70.17
2019-04-16T20:58:07.524Z,70.09
2019-04-16T21:00:42.251Z,69.69
2019-04-16T21:03:21.537Z,69.22
2019-04-16T21:05:40.778Z,68.54
2019-04-16T21:08:10.224Z,68.62
2019-04-16T21:10:39.593Z,69.08
2019-04-16T21:13:09.023Z,68.86
2019-04-16T21:15:38.631Z,69.31
2019-04-16T21:18:11.898Z,68.79
2019-04-16T21:20:39.172Z,68.81
2019-04-16T21:23:08.531Z,69.08
2019-04-16T21:25:37.901Z,68.52
2019-04-16T21:31:08.277Z,69.46
2019-04-16T21:33:52.303Z,70.07
2019-04-16T21:36:24.146Z,70.04
2019-04-16T21:39:17.084Z,70.49
2019-04-16T21:41:42.811Z,71.31
2019-04-16T21:44:13.309Z,71.50
2019-04-16T21:46:44.343Z,71.44
2019-04-16T21:49:13.774Z,70.75
2019-04-16T21:52:01.602Z,70.76
2019-04-16T21:54:31.447Z,70.36
2019-04-16T21:57:00.970Z,70.45
2019-04-16T21:59:30.332Z,70.77
2019-04-16T22:02:00.174Z,71.05
2019-04-16T22:04:29.565Z,70.95
2019-04-16T22:06:58.998Z,70.69
2019-04-16T22:09:28.357Z,70.49
2019-04-16T22:11:57.710Z,70.73
2019-04-16T22:14:27.155Z,70.56
2019-04-16T22:16:56.524Z,69.76
2019-04-16T22:19:25.872Z,69.93
2019-04-16T22:21:55.302Z,69.72
2019-04-16T22:24:24.656Z,69.83
2019-04-16T22:26:54.185Z,69.09
2019-04-16T22:29:23.536Z,69.39
2019-04-16T22:31:56.962Z,69.05
2019-04-16T22:34:23.972Z,69.46
2019-04-16T22:36:53.344Z,69.32
2019-04-16T22:39:33.375Z,69.43
2019-04-16T22:45:14.818Z,70.25
2019-04-16T22:47:45.827Z,69.64
2019-04-16T22:50:17.261Z,69.46
2019-04-16T22:52:46.269Z,69.68
2019-04-16T22:55:15.687Z,70.22
2019-04-16T22:57:45.111Z,69.43
2019-04-16T23:03:13.182Z,68.95
2019-04-16T23:05:42.527Z,69.42
2019-04-16T23:08:12.990Z,68.88
2019-04-16T23:10:42.594Z,68.64
2019-04-16T23:13:12.031Z,68.63
2019-04-16T23:15:42.255Z,68.22
2019-04-16T23:18:11.640Z,69.57
2019-04-16T23:20:42.605Z,70.20
2019-04-16T23:23:11.965Z,70.32
2019-04-16T23:25:41.382Z,70.98
2019-04-16T23:28:11.752Z,70.88
2019-04-16T23:30:41.166Z,70.74
2019-04-16T23:33:10.531Z,70.78
2019-04-16T23:35:44.404Z,71.29
2019-04-16T23:38:10.996Z,71.38
2019-04-16T23:40:40.714Z,72.36
2019-04-16T23:43:29.251Z,72.70
2019-04-16T23:48:39.615Z,72.31
2019-04-16T23:53:52.498Z,74.04
2019-04-16T23:56:26.322Z,73.26
2019-04-16T23:59:01.440Z,73.80
